YBCL weather

Boolcarrol Station Airport
New South Wales, Australia

Public forecast

Using degrees Celsius for public forecast. Weather courtesy of forecast.io.

METAR (pilot weather report)

Closest report is Narrabri Airport, 26.7 nm (49.5 km) SE. Retrieved 2019/06/16 02:00 UTC (46 minutes ago):

YNBR 160200Z AUTO 31008KT 9999 // NCD 16/02 Q1018

TAF (pilot weather forecast)

Forecast is more than 12 hours old.

Closest forecast is Tamworth Airport, 96.5 nm (178.8 km) SE. Retrieved 2019/06/15 00:36 UTC (1 day ago):

TAF TAF YSTW 152312Z 1600/1618 VRB03KT CAVOK FM160300 30005KT CAVOK